Terminal Aerodrome Forecast
Issued by NWS

Home | Current Version | Previous Version | Text Only | Print | Product List | Glossary Off
Versions: 1 2 3 4 5 6 7 8 9 10 11 12 13 14 15 16 17 18 19 20 21 22 23 24 25 26

735
FTUS43 KABR 240443 AAA
TAFMBG
TAF AMD
KMBG 240443Z 2405/2424 01014KT P6SM OVC020
     FM241100 01013G20KT P6SM BKN020
     FM241300 01013KT P6SM BKN045
     FM241700 36011KT P6SM SCT110=

USA.gov is the U.S. government's official web portal to all federal, state and local government web resources and services.